Time;durP1;ratioP1;P1;durP2;ratioP2;P2;SDS_P1;SDS_P2;PMS_P1;PMS_P2;Temp;Humidity;BMP_temperature;BMP_pressure;BME280_temperature;BME280_humidity;BME280_pressure;Samples;Min_cycle;Max_cycle;Signal;HPM_P1;HPM_P2
2021/03/10 00:00:37;;;;;;;12.05;8.43;;;7.70;99.90;;;;;;5013863;28;20211;-80
2021/03/10 00:03:03;;;;;;;9.85;7.85;;;7.60;99.90;;;;;;5020606;28;20219;-82
2021/03/10 00:05:29;;;;;;;10.73;7.78;;;7.60;99.90;;;;;;5001054;28;20223;-81
2021/03/10 00:07:56;;;;;;;12.65;9.05;;;7.70;99.90;;;;;;5010318;28;20216;-79
2021/03/10 00:10:23;;;;;;;10.40;8.00;;;7.60;99.90;;;;;;5008934;28;20221;-81
2021/03/10 00:12:49;;;;;;;9.43;8.32;;;7.60;99.90;;;;;;5013827;28;20713;-79
2021/03/10 00:15:16;;;;;;;9.60;8.10;;;7.60;99.90;;;;;;5017054;28;20705;-82
2021/03/10 00:17:43;;;;;;;10.77;8.88;;;7.60;99.90;;;;;;5021391;28;20292;-81
2021/03/10 00:20:11;;;;;;;15.07;8.60;;;7.60;99.90;;;;;;5016692;28;20216;-80
2021/03/10 00:22:38;;;;;;;10.43;8.38;;;7.60;99.90;;;;;;5023498;28;20690;-81
2021/03/10 00:25:05;;;;;;;9.57;8.07;;;7.70;99.90;;;;;;5026374;28;20326;-83
2021/03/10 00:27:33;;;;;;;15.05;9.75;;;7.60;99.90;;;;;;5027438;28;20822;-82
2021/03/10 00:30:05;;;;;;;11.55;9.13;;;7.60;99.90;;;;;;5034022;28;20224;-82
2021/03/10 00:32:31;;;;;;;13.48;8.10;;;7.60;99.90;;;;;;5030292;28;20227;-81
2021/03/10 00:34:59;;;;;;;11.35;9.32;;;7.70;99.90;;;;;;5026649;28;20216;-82
2021/03/10 00:37:25;;;;;;;11.70;8.25;;;7.60;99.90;;;;;;5026283;28;20590;-82
2021/03/10 00:39:52;;;;;;;12.98;9.15;;;7.60;99.90;;;;;;5033426;28;20219;-82
2021/03/10 00:42:19;;;;;;;12.00;8.52;;;7.60;99.90;;;;;;5027981;28;20279;-82
2021/03/10 00:44:46;;;;;;;13.05;11.23;;;7.70;99.90;;;;;;5016570;28;20192;-82
2021/03/10 00:47:13;;;;;;;12.07;9.18;;;7.60;99.90;;;;;;5033189;28;20801;-82
2021/03/10 00:49:41;;;;;;;15.65;10.07;;;7.60;99.90;;;;;;5024662;28;20232;-80
2021/03/10 00:52:08;;;;;;;16.27;9.52;;;7.60;99.90;;;;;;5033183;28;20226;-82
2021/03/10 00:54:34;;;;;;;12.25;9.15;;;7.60;99.90;;;;;;5027792;28;20311;-81
2021/03/10 00:57:01;;;;;;;11.52;8.73;;;7.70;99.90;;;;;;5025438;28;20690;-81
2021/03/10 00:59:27;;;;;;;11.57;9.75;;;7.60;99.90;;;;;;5026020;28;20279;-82
2021/03/10 01:01:54;;;;;;;10.95;8.98;;;7.60;99.90;;;;;;5024270;28;20230;-82
2021/03/10 01:04:21;;;;;;;11.57;9.63;;;7.50;99.90;;;;;;5027034;28;20302;-82
2021/03/10 01:06:47;;;;;;;11.45;9.60;;;7.50;99.90;;;;;;5021959;28;20222;-83
2021/03/10 01:09:14;;;;;;;9.95;8.90;;;7.50;99.90;;;;;;5032253;28;20266;-84
2021/03/10 01:11:40;;;;;;;10.52;8.68;;;7.50;99.90;;;;;;5024547;28;20214;-83
2021/03/10 01:14:07;;;;;;;13.63;10.50;;;7.50;99.90;;;;;;5026132;28;20228;-83
2021/03/10 01:16:34;;;;;;;12.10;10.07;;;7.60;99.90;;;;;;5030096;28;20258;-83
2021/03/10 01:19:01;;;;;;;10.05;8.00;;;7.50;99.90;;;;;;5032783;28;20211;-83
2021/03/10 01:21:28;;;;;;;9.95;8.63;;;7.50;99.90;;;;;;5022385;28;20582;-83
2021/03/10 01:23:54;;;;;;;10.38;9.27;;;7.60;99.90;;;;;;5031643;28;20188;-83
2021/03/10 01:26:20;;;;;;;12.18;8.93;;;7.50;99.90;;;;;;5026262;28;20216;-83
2021/03/10 01:28:47;;;;;;;10.57;9.48;;;7.50;99.90;;;;;;5027044;28;20855;-83
2021/03/10 01:31:13;;;;;;;10.27;7.97;;;7.50;99.90;;;;;;5033045;28;20270;-84
2021/03/10 01:33:39;;;;;;;12.43;9.25;;;7.50;99.90;;;;;;5026581;28;20220;-82
2021/03/10 01:36:07;;;;;;;12.07;9.95;;;7.50;99.90;;;;;;5013852;28;20203;-84
2021/03/10 01:38:33;;;;;;;15.77;10.85;;;7.50;99.90;;;;;;5019711;28;20215;-84
2021/03/10 01:41:00;;;;;;;12.68;9.07;;;7.50;99.90;;;;;;5032291;28;20246;-85
2021/03/10 01:43:26;;;;;;;11.65;10.02;;;7.50;99.90;;;;;;5030686;28;20270;-84
2021/03/10 01:45:52;;;;;;;11.82;9.35;;;7.50;99.90;;;;;;5032741;28;20234;-82
2021/03/10 01:48:21;;;;;;;11.90;9.65;;;7.50;99.90;;;;;;5032543;28;20242;-82
2021/03/10 01:50:47;;;;;;;11.32;9.80;;;7.50;99.90;;;;;;5031396;28;20231;-83
2021/03/10 01:53:15;;;;;;;11.80;10.45;;;7.50;99.90;;;;;;5029599;28;20210;-82
2021/03/10 01:55:41;;;;;;;12.07;10.77;;;7.60;99.90;;;;;;5029083;28;20226;-83
2021/03/10 01:58:07;;;;;;;13.88;10.75;;;7.50;99.90;;;;;;5032488;28;20215;-83
2021/03/10 02:00:34;;;;;;;12.90;10.07;;;7.50;99.90;;;;;;5032155;28;20216;-83
2021/03/10 02:03:00;;;;;;;12.43;10.43;;;7.50;99.90;;;;;;5028698;28;20265;-83
2021/03/10 02:05:27;;;;;;;11.57;10.00;;;7.50;99.90;;;;;;5021659;28;20224;-83
2021/03/10 02:08:12;;;;;;;10.20;9.10;;;7.50;99.90;;;;;;5017813;28;20678;-83
2021/03/10 02:10:51;;;;;;;12.20;9.63;;;7.40;99.90;;;;;;5027084;28;20199;-83
2021/03/10 02:13:24;;;;;;;10.80;9.27;;;7.50;99.90;;;;;;5027189;28;20289;-83
2021/03/10 02:15:56;;;;;;;12.38;10.00;;;7.50;99.90;;;;;;5027095;28;20266;-84
2021/03/10 02:18:27;;;;;;;12.00;10.45;;;7.50;99.90;;;;;;5030417;28;20196;-83
2021/03/10 02:20:56;;;;;;;13.48;11.02;;;7.50;99.90;;;;;;5015558;28;20220;-83
2021/03/10 02:23:45;;;;;;;13.55;9.95;;;7.50;99.90;;;;;;5031542;28;20203;-82
2021/03/10 02:26:40;;;;;;;13.50;10.85;;;7.50;99.90;;;;;;5032736;28;20212;-84
2021/03/10 02:29:08;;;;;;;12.20;9.13;;;7.50;99.90;;;;;;5028641;28;20658;-83
2021/03/10 02:31:38;;;;;;;13.13;10.43;;;7.60;99.90;;;;;;5017856;28;20215;-83
2021/03/10 02:34:06;;;;;;;16.25;11.40;;;7.50;99.90;;;;;;5028294;28;20582;-82
2021/03/10 02:36:33;;;;;;;11.05;9.95;;;7.50;99.90;;;;;;5028740;28;20219;-82
2021/03/10 02:39:01;;;;;;;13.60;11.50;;;7.50;99.90;;;;;;5029145;28;20694;-83
2021/03/10 02:41:29;;;;;;;12.07;10.60;;;7.50;99.90;;;;;;5024983;28;20554;-82
2021/03/10 02:43:57;;;;;;;12.25;10.13;;;7.50;99.90;;;;;;5024978;28;20803;-82
2021/03/10 02:46:25;;;;;;;11.25;9.55;;;7.50;99.90;;;;;;5027864;28;20222;-82
2021/03/10 02:48:52;;;;;;;11.93;10.68;;;7.50;99.90;;;;;;5025025;28;20226;-82
2021/03/10 02:51:20;;;;;;;12.57;10.10;;;7.50;99.90;;;;;;5027074;28;20227;-82
2021/03/10 02:53:48;;;;;;;14.80;10.02;;;7.60;99.90;;;;;;5024466;28;20222;-82
2021/03/10 02:56:15;;;;;;;15.23;11.18;;;7.50;99.90;;;;;;5026114;28;20582;-82
2021/03/10 02:58:42;;;;;;;13.65;10.30;;;7.50;99.90;;;;;;5025988;28;20261;-82
2021/03/10 03:01:08;;;;;;;15.02;9.85;;;7.50;99.90;;;;;;5028298;28;20207;-82
2021/03/10 03:03:36;;;;;;;13.27;9.68;;;7.50;99.90;;;;;;5025768;28;20192;-82
2021/03/10 03:06:02;;;;;;;12.43;10.15;;;7.50;99.90;;;;;;5030221;28;20219;-82
2021/03/10 03:08:29;;;;;;;11.35;9.52;;;7.50;99.90;;;;;;5023933;28;20207;-82
2021/03/10 03:10:56;;;;;;;12.15;8.77;;;7.50;99.90;;;;;;5030615;28;20221;-82
2021/03/10 03:13:23;;;;;;;10.23;8.45;;;7.50;99.90;;;;;;5026651;28;20305;-82
2021/03/10 03:15:54;;;;;;;15.38;9.57;;;7.50;99.90;;;;;;5030782;28;20211;-83
2021/03/10 03:18:21;;;;;;;11.05;9.48;;;7.50;99.90;;;;;;5012640;28;20203;-84
2021/03/10 03:20:49;;;;;;;12.77;11.00;;;7.50;99.90;;;;;;5031065;28;20219;-85
2021/03/10 03:23:17;;;;;;;12.52;9.05;;;7.40;99.90;;;;;;5031038;28;20223;-86
2021/03/10 03:25:45;;;;;;;10.93;8.55;;;7.40;99.90;;;;;;5024717;28;20231;-85
2021/03/10 03:28:15;;;;;;;13.23;10.38;;;7.40;99.90;;;;;;5028214;28;20207;-84
2021/03/10 03:30:43;;;;;;;10.27;9.07;;;7.40;99.90;;;;;;5026778;28;20215;-84
2021/03/10 03:33:11;;;;;;;9.68;8.27;;;7.50;99.90;;;;;;5028935;28;20215;-84
2021/03/10 03:35:38;;;;;;;13.52;8.70;;;7.40;99.90;;;;;;5032192;28;20691;-84
2021/03/10 03:38:07;;;;;;;8.98;8.00;;;7.40;99.90;;;;;;5030987;28;20239;-84
2021/03/10 03:40:34;;;;;;;8.60;7.20;;;7.40;99.90;;;;;;5032153;28;20200;-83
2021/03/10 03:43:01;;;;;;;11.35;8.75;;;7.50;99.90;;;;;;5024343;28;20627;-84
2021/03/10 03:45:27;;;;;;;8.40;7.60;;;7.50;99.90;;;;;;5032114;28;20219;-84
2021/03/10 03:47:55;;;;;;;7.95;7.15;;;7.40;99.90;;;;;;5025093;28;20212;-84
2021/03/10 03:50:23;;;;;;;9.07;8.23;;;7.40;99.90;;;;;;5030549;28;20789;-82
2021/03/10 03:52:50;;;;;;;7.95;7.15;;;7.40;99.90;;;;;;5030457;28;20613;-84
2021/03/10 03:55:17;;;;;;;10.40;8.68;;;7.40;99.90;;;;;;5030104;28;20289;-83
2021/03/10 03:57:43;;;;;;;8.18;7.22;;;7.40;99.90;;;;;;5032855;28;20269;-83
2021/03/10 04:00:12;;;;;;;7.82;7.05;;;7.40;99.90;;;;;;5020975;28;20212;-83
2021/03/10 04:02:38;;;;;;;8.35;7.55;;;7.40;99.90;;;;;;5030599;28;20192;-84
2021/03/10 04:05:06;;;;;;;10.00;7.95;;;7.40;99.90;;;;;;5030931;28;20691;-84
2021/03/10 04:07:32;;;;;;;8.00;7.20;;;7.40;99.90;;;;;;5026527;28;20197;-84
2021/03/10 04:09:59;;;;;;;8.52;7.03;;;7.50;99.90;;;;;;5032357;28;20215;-83
2021/03/10 04:12:26;;;;;;;8.80;7.93;;;7.40;99.90;;;;;;5027052;28;20265;-83
2021/03/10 04:14:52;;;;;;;8.93;7.97;;;7.40;99.90;;;;;;5030374;28;20301;-83
2021/03/10 04:17:19;;;;;;;8.15;7.35;;;7.40;99.90;;;;;;5028267;28;20559;-84
2021/03/10 04:19:45;;;;;;;8.02;6.65;;;7.40;99.90;;;;;;5031215;28;20222;-84
2021/03/10 04:22:11;;;;;;;7.13;6.45;;;7.50;99.90;;;;;;5028866;28;20752;-84
2021/03/10 04:24:37;;;;;;;11.18;8.10;;;7.40;99.90;;;;;;5032219;28;20223;-84
2021/03/10 04:27:04;;;;;;;8.35;6.95;;;7.40;99.90;;;;;;5031370;28;20208;-82
2021/03/10 04:29:31;;;;;;;7.60;6.85;;;7.40;99.90;;;;;;5029144;28;20219;-83
2021/03/10 04:31:57;;;;;;;9.70;7.60;;;7.40;99.90;;;;;;5027894;28;20481;-83
2021/03/10 04:34:23;;;;;;;9.52;7.70;;;7.40;99.90;;;;;;5027466;28;20222;-83
2021/03/10 04:36:50;;;;;;;9.07;7.10;;;7.40;99.90;;;;;;5028642;28;20218;-84
2021/03/10 04:39:16;;;;;;;7.70;6.90;;;7.50;99.90;;;;;;5030745;28;20195;-82
2021/03/10 04:41:42;;;;;;;7.53;6.82;;;7.50;99.90;;;;;;5033820;28;20203;-83
2021/03/10 04:44:09;;;;;;;8.05;7.18;;;7.40;99.90;;;;;;5027001;28;20223;-83
2021/03/10 04:46:36;;;;;;;9.00;6.70;;;7.30;99.90;;;;;;5024940;28;20220;-83
2021/03/10 04:49:02;;;;;;;8.20;7.40;;;7.40;99.90;;;;;;5034351;28;20196;-84
2021/03/10 04:51:28;;;;;;;9.60;7.15;;;7.40;99.90;;;;;;5031073;28;20200;-84
2021/03/10 04:53:54;;;;;;;7.93;6.97;;;7.50;99.90;;;;;;5029128;28;20216;-84
2021/03/10 04:56:21;;;;;;;10.55;7.63;;;7.40;99.90;;;;;;5025619;28;20223;-85
2021/03/10 04:58:47;;;;;;;7.47;6.65;;;7.50;99.90;;;;;;5034665;28;20215;-85
2021/03/10 05:01:13;;;;;;;7.25;6.55;;;7.40;99.90;;;;;;5034868;28;20196;-85
2021/03/10 05:03:40;;;;;;;7.32;6.25;;;7.40;99.90;;;;;;5031547;28;20219;-83
2021/03/10 05:06:06;;;;;;;7.80;6.70;;;7.30;99.90;;;;;;5030041;28;20215;-83
2021/03/10 05:08:33;;;;;;;9.00;7.70;;;7.30;99.90;;;;;;5032527;28;20212;-83
2021/03/10 05:10:59;;;;;;;9.48;7.70;;;7.30;99.90;;;;;;5034074;28;20224;-83
2021/03/10 05:13:25;;;;;;;7.82;6.60;;;7.30;99.90;;;;;;5016230;28;20783;-83
2021/03/10 05:15:51;;;;;;;9.93;6.68;;;7.30;99.90;;;;;;5033701;28;20732;-84
2021/03/10 05:18:17;;;;;;;8.32;7.05;;;7.30;99.90;;;;;;5024664;28;20224;-84
2021/03/10 05:20:45;;;;;;;7.60;6.45;;;7.40;99.90;;;;;;5034541;28;20206;-83
2021/03/10 05:23:11;;;;;;;10.32;7.97;;;7.30;99.90;;;;;;5033077;28;20757;-82
2021/03/10 05:25:37;;;;;;;8.52;7.10;;;7.30;99.90;;;;;;5028873;28;20226;-85
2021/03/10 05:28:04;;;;;;;9.80;6.50;;;7.30;99.90;;;;;;5032172;28;20212;-85
2021/03/10 05:30:30;;;;;;;7.25;6.50;;;7.30;99.90;;;;;;5031226;28;20242;-84
2021/03/10 05:32:56;;;;;;;8.70;7.43;;;7.30;99.90;;;;;;5034284;28;20250;-84
2021/03/10 05:35:23;;;;;;;7.53;6.40;;;7.30;99.90;;;;;;5023645;28;20231;-84
2021/03/10 05:37:50;;;;;;;10.23;7.70;;;7.30;99.90;;;;;;5028351;28;20242;-85
2021/03/10 05:40:18;;;;;;;8.82;6.70;;;7.30;99.90;;;;;;5028184;28;20559;-85
2021/03/10 05:42:44;;;;;;;9.02;7.60;;;7.30;99.90;;;;;;5032254;28;20299;-84
2021/03/10 05:45:13;;;;;;;10.70;8.00;;;7.30;99.90;;;;;;5025101;28;20200;-84
2021/03/10 05:47:39;;;;;;;9.32;8.30;;;7.20;99.90;;;;;;5031519;28;20212;-84
2021/03/10 05:50:07;;;;;;;9.80;7.45;;;7.20;99.90;;;;;;5030087;28;20807;-85
2021/03/10 05:52:37;;;;;;;10.40;8.27;;;7.30;99.90;;;;;;5026747;28;20222;-85
2021/03/10 05:55:06;;;;;;;11.43;8.43;;;7.20;99.90;;;;;;5033334;28;20223;-84
2021/03/10 05:57:33;;;;;;;9.65;8.15;;;7.20;99.90;;;;;;5031881;28;20231;-84
2021/03/10 05:59:59;;;;;;;8.63;7.63;;;7.20;99.90;;;;;;5032471;28;20215;-85
2021/03/10 06:02:26;;;;;;;8.68;7.78;;;7.20;99.90;;;;;;5033071;28;20211;-85
2021/03/10 06:04:52;;;;;;;10.65;8.43;;;7.20;99.90;;;;;;5031660;28;20633;-84
2021/03/10 06:07:20;;;;;;;12.98;8.07;;;7.20;99.90;;;;;;5032069;28;20199;-85
2021/03/10 06:09:57;;;;;;;9.13;7.75;;;7.20;99.90;;;;;;5032806;28;20690;-84
2021/03/10 06:12:25;;;;;;;10.40;7.93;;;7.20;99.90;;;;;;5032016;28;20227;-85
2021/03/10 06:15:00;;;;;;;13.27;8.45;;;7.20;99.90;;;;;;5027289;28;20224;-85
2021/03/10 06:17:26;;;;;;;9.30;7.93;;;7.10;99.90;;;;;;5032477;28;20214;-84
2021/03/10 06:19:53;;;;;;;9.02;8.02;;;7.20;99.90;;;;;;5025251;28;20195;-84
2021/03/10 06:22:19;;;;;;;8.75;7.82;;;7.10;99.90;;;;;;5027594;28;20219;-83
2021/03/10 06:24:49;;;;;;;11.45;8.50;;;7.20;99.90;;;;;;5031920;28;20238;-83
2021/03/10 06:27:21;;;;;;;11.45;8.18;;;7.10;99.90;;;;;;5031462;28;20243;-85
2021/03/10 06:29:56;;;;;;;11.02;8.70;;;7.10;99.90;;;;;;5032450;28;20202;-84
2021/03/10 06:32:22;;;;;;;12.75;9.02;;;7.10;99.90;;;;;;5030491;28;20191;-82
2021/03/10 06:34:50;;;;;;;15.43;9.00;;;7.10;99.90;;;;;;5024274;28;20627;-83
2021/03/10 06:37:26;;;;;;;11.73;10.05;;;7.10;99.90;;;;;;5019562;28;20192;-83
2021/03/10 06:39:52;;;;;;;9.88;7.78;;;7.00;99.90;;;;;;5031288;28;20199;-84
2021/03/10 06:42:19;;;;;;;13.45;9.20;;;7.00;99.90;;;;;;5031165;28;20245;-85
2021/03/10 06:44:50;;;;;;;12.27;9.27;;;7.00;99.90;;;;;;5032380;28;20223;-84
2021/03/10 06:47:17;;;;;;;12.95;9.13;;;7.00;99.90;;;;;;5029953;28;20195;-84
2021/03/10 06:49:51;;;;;;;10.63;9.20;;;7.00;99.90;;;;;;5013913;28;20263;-84
2021/03/10 06:52:18;;;;;;;12.85;9.43;;;7.00;99.90;;;;;;5035528;28;20218;-84
2021/03/10 06:54:55;;;;;;;14.70;9.73;;;7.10;99.90;;;;;;5035780;28;20231;-84
2021/03/10 06:57:21;;;;;;;13.52;9.57;;;7.00;99.90;;;;;;5026821;28;20229;-84
2021/03/10 06:59:49;;;;;;;14.48;10.13;;;7.00;99.90;;;;;;5026975;28;20199;-84
2021/03/10 07:02:17;;;;;;;15.57;10.70;;;7.00;99.90;;;;;;5031219;28;20223;-83
2021/03/10 07:04:45;;;;;;;12.13;9.25;;;7.00;99.90;;;;;;5026854;28;20219;-83
2021/03/10 07:07:11;;;;;;;13.43;10.82;;;7.00;99.90;;;;;;5023942;28;20567;-84
2021/03/10 07:09:38;;;;;;;10.98;8.75;;;6.90;99.90;;;;;;5027802;28;20219;-82
2021/03/10 07:12:07;;;;;;;13.75;9.13;;;6.90;99.90;;;;;;5020466;28;20273;-83
2021/03/10 07:14:34;;;;;;;17.10;10.65;;;7.00;99.90;;;;;;5027904;28;20227;-84
2021/03/10 07:17:00;;;;;;;13.35;9.65;;;7.00;99.90;;;;;;5030151;28;20215;-83
2021/03/10 07:19:27;;;;;;;15.98;10.50;;;7.00;99.90;;;;;;5024898;28;20237;-84
2021/03/10 07:21:57;;;;;;;17.08;10.57;;;7.00;99.90;;;;;;5029847;28;20223;-83
2021/03/10 07:24:30;;;;;;;13.85;10.15;;;7.00;99.90;;;;;;5019016;28;20227;-84
2021/03/10 07:26:58;;;;;;;13.15;10.00;;;7.20;99.90;;;;;;5026500;28;20218;-84
2021/03/10 07:29:25;;;;;;;18.33;12.95;;;7.30;99.90;;;;;;5035164;28;20192;-85
2021/03/10 07:31:58;;;;;;;15.65;11.02;;;7.20;99.90;;;;;;5017050;28;20206;-85
2021/03/10 07:34:27;;;;;;;19.55;12.70;;;7.10;99.90;;;;;;5032868;28;20682;-84
2021/03/10 07:36:53;;;;;;;18.73;13.15;;;7.10;99.90;;;;;;5035415;28;20214;-84
2021/03/10 07:39:24;;;;;;;20.30;13.25;;;7.10;99.90;;;;;;5036051;28;20191;-83
2021/03/10 07:41:51;;;;;;;21.38;14.23;;;7.10;99.90;;;;;;5033747;28;20215;-84
2021/03/10 07:44:19;;;;;;;21.25;13.68;;;7.20;99.90;;;;;;5016572;28;20685;-84
2021/03/10 07:46:47;;;;;;;27.88;14.38;;;7.20;99.90;;;;;;5021341;28;20196;-81
2021/03/10 07:49:22;;;;;;;25.27;15.07;;;7.20;99.90;;;;;;5032643;28;20192;-82
2021/03/10 07:51:49;;;;;;;20.63;13.50;;;7.30;99.90;;;;;;5027792;28;20215;-83
2021/03/10 07:54:25;;;;;;;22.73;13.93;;;7.30;99.90;;;;;;5034740;28;20285;-83
2021/03/10 07:57:03;;;;;;;22.17;14.27;;;7.20;99.90;;;;;;5033173;28;20223;-82
2021/03/10 07:59:29;;;;;;;19.75;13.07;;;7.10;99.90;;;;;;5027747;28;20196;-82
2021/03/10 08:02:01;;;;;;;18.25;11.82;;;7.20;99.90;;;;;;5034310;28;20215;-83
2021/03/10 08:04:27;;;;;;;18.40;12.45;;;7.20;99.90;;;;;;5032306;28;20278;-83
2021/03/10 08:06:54;;;;;;;16.67;12.40;;;7.20;99.90;;;;;;5027116;28;20222;-84
2021/03/10 08:09:22;;;;;;;17.45;12.68;;;7.20;99.90;;;;;;5034940;28;20223;-84
2021/03/10 08:12:02;;;;;;;18.25;14.10;;;7.20;99.90;;;;;;5032100;28;20291;-83
2021/03/10 08:14:38;;;;;;;22.83;13.40;;;7.20;99.90;;;;;;5031713;28;20258;-83
2021/03/10 08:17:05;;;;;;;19.38;12.93;;;7.10;99.90;;;;;;5021703;28;20265;-83
2021/03/10 08:19:31;;;;;;;19.10;11.73;;;7.20;99.90;;;;;;5031662;28;20216;-84
2021/03/10 08:21:59;;;;;;;22.90;13.95;;;7.10;99.90;;;;;;5034637;28;20269;-83
2021/03/10 08:24:26;;;;;;;18.73;12.55;;;7.10;99.90;;;;;;5022442;28;20562;-84
2021/03/10 08:26:54;;;;;;;20.55;15.32;;;7.00;99.90;;;;;;5033650;28;20228;-78
2021/03/10 08:29:22;;;;;;;17.27;13.27;;;7.00;99.90;;;;;;5027252;28;20198;-77
2021/03/10 08:31:51;;;;;;;24.65;16.83;;;7.00;99.90;;;;;;5022864;28;20212;-76
2021/03/10 08:34:30;;;;;;;19.30;13.07;;;7.00;99.90;;;;;;5026754;28;20219;-78
2021/03/10 08:36:56;;;;;;;18.52;12.40;;;7.00;99.90;;;;;;5024248;28;20261;-78
2021/03/10 08:39:23;;;;;;;17.23;11.57;;;7.00;99.90;;;;;;5024474;28;20203;-78
2021/03/10 08:41:52;;;;;;;19.45;12.32;;;7.00;99.90;;;;;;5027548;28;20685;-78
2021/03/10 08:44:21;;;;;;;15.60;11.98;;;7.00;99.90;;;;;;5028471;28;20314;-79
2021/03/10 08:46:48;;;;;;;15.25;10.25;;;7.00;99.90;;;;;;5029233;28;20212;-79
2021/03/10 08:49:26;;;;;;;17.30;11.85;;;7.00;99.90;;;;;;5033353;28;20216;-80
2021/03/10 08:52:13;;;;;;;24.02;13.50;;;7.10;99.90;;;;;;5033266;28;20302;-80
2021/03/10 08:54:55;;;;;;;16.15;10.23;;;7.10;99.90;;;;;;5029107;28;20216;-80
2021/03/10 08:57:24;;;;;;;22.42;13.75;;;7.10;99.90;;;;;;5029169;28;20239;-79
2021/03/10 08:59:50;;;;;;;20.33;12.40;;;7.20;99.90;;;;;;5030716;28;20211;-79
2021/03/10 09:02:24;;;;;;;14.23;11.10;;;7.20;99.90;;;;;;5032477;28;20215;-80
2021/03/10 09:04:51;;;;;;;21.80;12.75;;;7.30;99.90;;;;;;5027141;28;20504;-80
2021/03/10 09:07:18;;;;;;;14.32;11.05;;;7.20;99.90;;;;;;5032202;28;20208;-80
2021/03/10 09:09:45;;;;;;;16.02;11.60;;;7.30;99.90;;;;;;5031043;28;20652;-80
2021/03/10 09:12:13;;;;;;;20.00;13.95;;;7.20;99.90;;;;;;5026446;28;20202;-80
2021/03/10 09:14:40;;;;;;;20.15;15.02;;;7.20;99.90;;;;;;5026709;28;20308;-80
2021/03/10 09:17:07;;;;;;;16.25;12.55;;;7.20;99.90;;;;;;5030598;28;20199;-80
2021/03/10 09:19:36;;;;;;;17.40;11.55;;;7.10;99.90;;;;;;5030344;28;20270;-80
2021/03/10 09:22:10;;;;;;;17.70;12.25;;;7.10;99.90;;;;;;5013022;28;20220;-79
2021/03/10 09:24:51;;;;;;;16.85;11.68;;;7.10;99.90;;;;;;5022573;28;20219;-78
2021/03/10 09:27:20;;;;;;;16.98;13.40;;;7.10;99.90;;;;;;5019150;28;20196;-79
2021/03/10 09:29:46;;;;;;;19.15;12.27;;;7.10;99.90;;;;;;5027365;28;20192;-79
2021/03/10 09:32:12;;;;;;;17.35;12.55;;;7.10;99.90;;;;;;5032117;28;20219;-78
2021/03/10 09:34:39;;;;;;;12.90;10.70;;;7.20;99.90;;;;;;5032250;28;20231;-81
2021/03/10 09:37:07;;;;;;;13.88;11.23;;;7.20;99.90;;;;;;5024744;28;20200;-78
2021/03/10 09:39:41;;;;;;;17.73;11.40;;;7.20;99.90;;;;;;5024623;28;20223;-78
2021/03/10 09:42:08;;;;;;;18.42;12.00;;;7.20;99.90;;;;;;5032185;28;20211;-78
2021/03/10 09:44:46;;;;;;;16.55;11.65;;;7.20;99.90;;;;;;5032710;28;20207;-78
2021/03/10 09:47:17;;;;;;;12.13;9.55;;;7.20;99.90;;;;;;5012704;28;20204;-78
2021/03/10 09:49:45;;;;;;;15.70;11.70;;;7.20;99.90;;;;;;5013211;28;20232;-78
2021/03/10 09:52:12;;;;;;;14.65;11.43;;;7.20;99.90;;;;;;5015024;28;20693;-78
2021/03/10 09:54:52;;;;;;;15.43;11.05;;;7.30;99.90;;;;;;5024113;28;20687;-78
2021/03/10 09:57:22;;;;;;;15.50;12.00;;;7.30;99.90;;;;;;5025493;28;20885;-79
2021/03/10 09:59:50;;;;;;;15.70;11.15;;;7.30;99.90;;;;;;5024595;28;20568;-78
2021/03/10 10:02:16;;;;;;;15.95;10.40;;;7.40;99.90;;;;;;5020704;28;20199;-78
2021/03/10 10:04:43;;;;;;;13.82;10.75;;;7.40;99.90;;;;;;5035948;28;20709;-78
2021/03/10 10:07:12;;;;;;;13.88;11.23;;;7.40;99.90;;;;;;5031374;28;20223;-78
2021/03/10 10:09:39;;;;;;;12.15;10.07;;;7.50;99.90;;;;;;5027841;28;20269;-78
2021/03/10 10:12:06;;;;;;;14.98;11.52;;;7.50;99.90;;;;;;5031463;28;20550;-78
2021/03/10 10:14:32;;;;;;;11.90;10.13;;;7.50;99.90;;;;;;5031900;28;20286;-82
2021/03/10 10:16:59;;;;;;;14.65;10.82;;;7.50;99.90;;;;;;5024182;28;20198;-77
2021/03/10 10:19:26;;;;;;;12.55;10.25;;;7.50;99.90;;;;;;5017774;28;20218;-76
2021/03/10 10:21:52;;;;;;;17.33;11.35;;;7.60;99.90;;;;;;5029525;28;20212;-77
2021/03/10 10:24:18;;;;;;;16.83;11.10;;;7.60;99.90;;;;;;5029387;28;20214;-77
2021/03/10 10:26:45;;;;;;;15.52;9.57;;;7.60;99.90;;;;;;5022720;28;20199;-78
2021/03/10 10:29:11;;;;;;;15.93;11.60;;;7.80;99.90;;;;;;5030005;28;20278;-79
2021/03/10 10:31:37;;;;;;;14.93;12.57;;;7.80;99.90;;;;;;5030316;28;20221;-79
2021/03/10 10:34:04;;;;;;;11.73;9.35;;;7.90;99.90;;;;;;5033422;28;20210;-78
2021/03/10 10:36:31;;;;;;;13.82;10.63;;;7.90;99.90;;;;;;5037510;28;20206;-79
2021/03/10 10:38:57;;;;;;;12.77;9.88;;;8.00;99.90;;;;;;5018365;28;20220;-78
2021/03/10 10:41:23;;;;;;;16.05;12.15;;;8.10;99.90;;;;;;5010350;28;20216;-78
2021/03/10 10:43:49;;;;;;;20.92;13.00;;;8.20;99.90;;;;;;5027017;28;20199;-78
2021/03/10 10:46:16;;;;;;;18.55;12.32;;;8.30;99.90;;;;;;5030894;28;20195;-78
2021/03/10 10:48:42;;;;;;;14.95;12.10;;;8.40;99.90;;;;;;5034152;28;20211;-77
2021/03/10 10:51:09;;;;;;;21.38;14.85;;;8.40;99.90;;;;;;5030557;28;20231;-78
2021/03/10 10:53:36;;;;;;;18.10;13.40;;;8.40;99.90;;;;;;5023100;28;20713;-78
2021/03/10 10:56:02;;;;;;;17.60;12.73;;;8.50;99.90;;;;;;5015239;28;20222;-78
2021/03/10 10:58:28;;;;;;;21.23;11.93;;;8.50;99.90;;;;;;5030336;28;20215;-82
2021/03/10 11:00:54;;;;;;;19.48;12.27;;;8.50;99.90;;;;;;5025514;28;20215;-78
2021/03/10 11:03:22;;;;;;;17.52;13.90;;;8.60;99.90;;;;;;5026649;28;20215;-79
2021/03/10 11:05:49;;;;;;;19.17;14.40;;;8.60;99.90;;;;;;5050967;28;20257;-78
2021/03/10 11:08:16;;;;;;;26.88;14.48;;;8.60;99.90;;;;;;5031815;28;20211;-78
2021/03/10 11:10:42;;;;;;;17.10;11.88;;;8.60;99.90;;;;;;5012245;28;20655;-79
2021/03/10 11:13:08;;;;;;;23.25;14.20;;;8.70;99.90;;;;;;5020961;28;20218;-78
2021/03/10 11:15:35;;;;;;;19.15;13.52;;;8.70;99.90;;;;;;5032037;28;20215;-79
2021/03/10 11:18:01;;;;;;;17.85;12.20;;;8.70;99.90;;;;;;5025171;28;20270;-79
2021/03/10 11:20:27;;;;;;;22.98;13.90;;;8.70;99.90;;;;;;5017562;28;20215;-75
2021/03/10 11:22:53;;;;;;;16.95;13.90;;;8.70;99.90;;;;;;5028987;28;20219;-75
2021/03/10 11:25:20;;;;;;;17.80;13.05;;;8.80;99.90;;;;;;5027684;28;20196;-82
2021/03/10 11:27:47;;;;;;;20.92;14.30;;;8.80;99.90;;;;;;5031028;28;20692;-78
2021/03/10 11:30:15;;;;;;;23.33;15.30;;;8.80;99.90;;;;;;5021917;28;20216;-78
2021/03/10 11:32:41;;;;;;;19.52;15.10;;;8.80;99.90;;;;;;5030306;28;20760;-76
2021/03/10 11:35:09;;;;;;;19.00;14.35;;;8.80;99.90;;;;;;5031787;28;20215;-78
2021/03/10 11:37:36;;;;;;;28.52;20.50;;;8.80;99.90;;;;;;5023986;28;20244;-76
2021/03/10 11:40:05;;;;;;;29.63;18.15;;;8.80;99.90;;;;;;5030677;28;20195;-76
2021/03/10 11:42:32;;;;;;;29.88;19.25;;;8.80;99.90;;;;;;5030406;28;20242;-77
2021/03/10 11:44:58;;;;;;;32.15;21.10;;;8.90;99.90;;;;;;5033378;28;20203;-78
2021/03/10 11:47:24;;;;;;;28.40;18.55;;;8.90;99.90;;;;;;5039937;28;20224;-79
2021/03/10 11:49:51;;;;;;;29.40;19.85;;;8.90;99.90;;;;;;5026228;28;20278;-77
2021/03/10 11:52:17;;;;;;;28.65;20.00;;;9.00;99.90;;;;;;5014105;28;20228;-77
2021/03/10 11:54:47;;;;;;;32.72;20.88;;;9.10;99.90;;;;;;5033617;28;20207;-77
2021/03/10 11:57:13;;;;;;;27.13;19.52;;;9.00;99.90;;;;;;5027723;28;20311;-80
2021/03/10 11:59:40;;;;;;;38.90;21.75;;;9.00;99.90;;;;;;5015748;28;20238;-79
2021/03/10 12:02:07;;;;;;;30.83;20.48;;;9.00;99.90;;;;;;5023054;28;20261;-79
2021/03/10 12:04:33;;;;;;;30.98;22.15;;;9.00;99.90;;;;;;5027712;28;20405;-79
2021/03/10 12:07:00;;;;;;;30.33;19.73;;;9.10;99.90;;;;;;5011108;28;20239;-77
2021/03/10 12:09:26;;;;;;;25.23;17.88;;;9.10;99.90;;;;;;5010576;28;20224;-79
2021/03/10 12:11:52;;;;;;;28.88;18.92;;;9.10;99.90;;;;;;5026459;28;20223;-79
2021/03/10 12:14:19;;;;;;;23.73;17.35;;;9.10;99.90;;;;;;5017207;28;20219;-77
2021/03/10 12:16:46;;;;;;;28.10;17.73;;;9.10;99.90;;;;;;5013962;28;20220;-80
2021/03/10 12:19:12;;;;;;;27.33;17.95;;;9.10;99.90;;;;;;5014244;28;20231;-77
2021/03/10 12:21:38;;;;;;;28.45;16.75;;;9.10;99.90;;;;;;5013799;28;20223;-79
2021/03/10 12:24:06;;;;;;;21.50;15.73;;;9.10;99.90;;;;;;5013958;28;20563;-79
2021/03/10 12:26:32;;;;;;;24.85;17.27;;;9.20;99.90;;;;;;5032759;28;20202;-79
2021/03/10 12:28:59;;;;;;;22.80;15.55;;;9.20;99.90;;;;;;5033645;28;20208;-79
2021/03/10 12:31:26;;;;;;;24.73;17.08;;;9.20;99.90;;;;;;5030626;28;20227;-81
2021/03/10 12:33:53;;;;;;;22.50;16.23;;;9.20;99.90;;;;;;5014417;28;20208;-81
2021/03/10 12:36:19;;;;;;;19.00;15.88;;;9.20;99.90;;;;;;5044493;28;20223;-80
2021/03/10 12:38:45;;;;;;;19.75;15.48;;;9.20;99.90;;;;;;5013776;28;20207;-81
2021/03/10 12:41:11;;;;;;;19.90;13.35;;;9.30;99.90;;;;;;5014039;28;20224;-81
2021/03/10 12:43:38;;;;;;;21.05;15.65;;;9.50;99.90;;;;;;5013690;28;20204;-80
2021/03/10 12:46:04;;;;;;;18.40;14.15;;;9.40;99.90;;;;;;5015736;28;20339;-81